sensor_id;sensor_type;location;lat;lon;timestamp;pressure;altitude;pressure_sealevel;temperature;humidity
14885;BME280;7534;50.762;7.000;2023-03-04T00:02:01;88849.44;;;-143.16;64.64
14885;BME280;7534;50.762;7.000;2023-03-04T00:04:27;88756.56;;;-143.16;64.56
14885;BME280;7534;50.762;7.000;2023-03-04T00:06:53;88807.06;;;-143.16;64.45
14885;BME280;7534;50.762;7.000;2023-03-04T00:09:18;89015.03;;;-143.16;64.27
14885;BME280;7534;50.762;7.000;2023-03-04T00:11:44;88786.84;;;-143.16;64.01
14885;BME280;7534;50.762;7.000;2023-03-04T00:14:10;89089.72;;;-143.16;64.39
14885;BME280;7534;50.762;7.000;2023-03-04T00:16:35;88794.94;;;-143.16;64.33
14885;BME280;7534;50.762;7.000;2023-03-04T00:19:01;88756.56;;;-143.16;64.10
14885;BME280;7534;50.762;7.000;2023-03-04T00:21:27;88750.53;;;-143.16;63.85
14885;BME280;7534;50.762;7.000;2023-03-04T00:23:52;88778.78;;;-143.16;64.08
14885;BME280;7534;50.762;7.000;2023-03-04T00:26:18;88794.94;;;-143.16;63.96
14885;BME280;7534;50.762;7.000;2023-03-04T00:28:44;88786.84;;;-143.16;64.36
14885;BME280;7534;50.762;7.000;2023-03-04T00:31:10;88770.72;;;-143.16;63.99
14885;BME280;7534;50.762;7.000;2023-03-04T00:33:36;88774.75;;;-143.16;63.79
14885;BME280;7534;50.762;7.000;2023-03-04T00:36:03;88996.84;;;-143.16;63.99
14885;BME280;7534;50.762;7.000;2023-03-04T00:38:29;88843.41;;;-143.16;64.10
14885;BME280;7534;50.762;7.000;2023-03-04T00:40:55;88774.75;;;-143.16;63.70
14885;BME280;7534;50.762;7.000;2023-03-04T00:43:21;88801.00;;;-143.16;64.29
14885;BME280;7534;50.762;7.000;2023-03-04T00:45:47;88762.63;;;-143.16;63.90
14885;BME280;7534;50.762;7.000;2023-03-04T00:48:14;88788.88;;;-143.16;63.80
14885;BME280;7534;50.762;7.000;2023-03-04T00:50:42;88827.25;;;-143.16;64.03
14885;BME280;7534;50.762;7.000;2023-03-04T00:53:08;88794.94;;;-143.16;63.94
14885;BME280;7534;50.762;7.000;2023-03-04T00:55:34;88770.72;;;-143.16;63.71
14885;BME280;7534;50.762;7.000;2023-03-04T00:58:00;88807.06;;;-143.16;63.42
14885;BME280;7534;50.762;7.000;2023-03-04T01:00:26;88728.31;;;-143.16;63.41
14885;BME280;7534;50.762;7.000;2023-03-04T01:02:51;88736.38;;;-143.16;63.58
14885;BME280;7534;50.762;7.000;2023-03-04T01:05:17;88857.53;;;-143.16;63.81
14885;BME280;7534;50.762;7.000;2023-03-04T01:07:43;88786.84;;;-143.16;63.61
14885;BME280;7534;50.762;7.000;2023-03-04T01:10:13;88827.25;;;-143.16;63.40
14885;BME280;7534;50.762;7.000;2023-03-04T01:12:39;88770.72;;;-143.16;63.60
14885;BME280;7534;50.762;7.000;2023-03-04T01:15:11;88817.16;;;-143.16;64.04
14885;BME280;7534;50.762;7.000;2023-03-04T01:17:37;88794.94;;;-143.16;64.34
14885;BME280;7534;50.762;7.000;2023-03-04T01:20:06;88807.06;;;-143.16;64.70
14885;BME280;7534;50.762;7.000;2023-03-04T01:22:32;88831.28;;;-143.16;64.82
14885;BME280;7534;50.762;7.000;2023-03-04T01:24:58;88805.03;;;-143.16;64.63
14885;BME280;7534;50.762;7.000;2023-03-04T01:27:24;88738.41;;;-143.16;65.06
14885;BME280;7534;50.762;7.000;2023-03-04T01:29:49;88714.19;;;-143.16;64.92
14885;BME280;7534;50.762;7.000;2023-03-04T01:32:15;88798.97;;;-143.16;64.88
14885;BME280;7534;50.762;7.000;2023-03-04T01:34:41;88645.53;;;-143.16;64.56
14885;BME280;7534;50.762;7.000;2023-03-04T01:37:07;88815.13;;;-143.16;64.47
14885;BME280;7534;50.762;7.000;2023-03-04T01:39:35;88805.03;;;-143.16;64.69
14885;BME280;7534;50.762;7.000;2023-03-04T01:42:00;88748.50;;;-143.16;64.53
14885;BME280;7534;50.762;7.000;2023-03-04T01:44:26;88794.94;;;-143.16;64.10
14885;BME280;7534;50.762;7.000;2023-03-04T01:46:54;88750.53;;;-143.16;64.78
14885;BME280;7534;50.762;7.000;2023-03-04T01:49:21;88750.53;;;-143.16;64.67
14885;BME280;7534;50.762;7.000;2023-03-04T01:51:53;88809.06;;;-143.16;64.57
14885;BME280;7534;50.762;7.000;2023-03-04T01:54:21;88671.78;;;-143.16;65.27
14885;BME280;7534;50.762;7.000;2023-03-04T01:56:49;88665.72;;;-143.16;65.55
14885;BME280;7534;50.762;7.000;2023-03-04T01:59:22;88819.16;;;-143.16;65.32
14885;BME280;7534;50.762;7.000;2023-03-04T02:01:55;88794.94;;;-143.16;65.33
14885;BME280;7534;50.762;7.000;2023-03-04T02:04:26;88817.16;;;-143.16;65.39
14885;BME280;7534;50.762;7.000;2023-03-04T02:06:54;88813.09;;;-143.16;65.56
14885;BME280;7534;50.762;7.000;2023-03-04T02:09:21;88798.97;;;-143.16;65.39
14885;BME280;7534;50.762;7.000;2023-03-04T02:11:48;88750.53;;;-143.16;65.37
14885;BME280;7534;50.762;7.000;2023-03-04T02:14:16;88817.16;;;-143.16;65.33
14885;BME280;7534;50.762;7.000;2023-03-04T02:16:42;88819.16;;;-143.16;65.08
14885;BME280;7534;50.762;7.000;2023-03-04T02:22:03;88794.94;;;-143.16;65.15
14885;BME280;7534;50.762;7.000;2023-03-04T02:24:43;88839.34;;;-143.16;65.46
14885;BME280;7534;50.762;7.000;2023-03-04T02:27:10;88746.47;;;-143.16;65.23
14885;BME280;7534;50.762;7.000;2023-03-04T02:29:36;88805.03;;;-143.16;64.89
14885;BME280;7534;50.762;7.000;2023-03-04T02:32:02;88829.25;;;-143.16;64.59
14885;BME280;7534;50.762;7.000;2023-03-04T02:34:33;88831.28;;;-143.16;64.45
14885;BME280;7534;50.762;7.000;2023-03-04T02:37:00;88782.81;;;-143.16;63.95
14885;BME280;7534;50.762;7.000;2023-03-04T02:39:38;88716.19;;;-143.16;64.02
14885;BME280;7534;50.762;7.000;2023-03-04T02:42:05;88698.03;;;-143.16;63.68
14885;BME280;7534;50.762;7.000;2023-03-04T02:44:34;88774.75;;;-143.16;63.99
14885;BME280;7534;50.762;7.000;2023-03-04T02:47:02;88790.91;;;-143.16;63.48
14885;BME280;7534;50.762;7.000;2023-03-04T02:49:30;88776.75;;;-143.16;64.16
14885;BME280;7534;50.762;7.000;2023-03-04T02:52:21;88807.06;;;-143.16;64.05
14885;BME280;7534;50.762;7.000;2023-03-04T02:54:47;88891.84;;;-143.16;63.60
14885;BME280;7534;50.762;7.000;2023-03-04T02:57:14;88782.81;;;-143.16;63.43
14885;BME280;7534;50.762;7.000;2023-03-04T02:59:40;88817.16;;;-143.16;63.48
14885;BME280;7534;50.762;7.000;2023-03-04T03:02:07;88770.72;;;-143.16;63.58
14885;BME280;7534;50.762;7.000;2023-03-04T03:04:36;88748.50;;;-143.16;63.58
14885;BME280;7534;50.762;7.000;2023-03-04T03:07:02;88895.88;;;-143.16;63.48
14885;BME280;7534;50.762;7.000;2023-03-04T03:09:28;88710.13;;;-143.16;63.20
14885;BME280;7534;50.762;7.000;2023-03-04T03:11:54;88724.28;;;-143.16;63.29
14885;BME280;7534;50.762;7.000;2023-03-04T03:14:19;88706.09;;;-143.16;63.45
14885;BME280;7534;50.762;7.000;2023-03-04T03:16:45;88803.00;;;-143.16;63.42
14885;BME280;7534;50.762;7.000;2023-03-04T03:19:10;88766.66;;;-143.16;63.16
14885;BME280;7534;50.762;7.000;2023-03-04T03:21:36;88764.66;;;-143.16;63.52
14885;BME280;7534;50.762;7.000;2023-03-04T03:24:02;88661.69;;;-143.16;63.72
14885;BME280;7534;50.762;7.000;2023-03-04T03:26:28;88811.09;;;-143.16;63.31
14885;BME280;7534;50.762;7.000;2023-03-04T03:28:53;88708.13;;;-143.16;63.14
14885;BME280;7534;50.762;7.000;2023-03-04T03:31:19;88740.44;;;-143.16;62.70
14885;BME280;7534;50.762;7.000;2023-03-04T03:33:44;88714.19;;;-143.16;62.75
14885;BME280;7534;50.762;7.000;2023-03-04T03:36:10;89041.25;;;-143.16;62.47
14885;BME280;7534;50.762;7.000;2023-03-04T03:38:36;88778.78;;;-143.16;62.50
14885;BME280;7534;50.762;7.000;2023-03-04T03:41:02;88786.84;;;-143.16;62.67
14885;BME280;7534;50.762;7.000;2023-03-04T03:43:28;88980.69;;;-143.16;62.59
14885;BME280;7534;50.762;7.000;2023-03-04T03:45:53;88653.59;;;-143.16;62.57
14885;BME280;7534;50.762;7.000;2023-03-04T03:48:19;88774.75;;;-143.16;63.16
14885;BME280;7534;50.762;7.000;2023-03-04T03:50:44;88776.75;;;-143.16;63.52
14885;BME280;7534;50.762;7.000;2023-03-04T03:53:10;88750.53;;;-143.16;63.87
14885;BME280;7534;50.762;7.000;2023-03-04T03:55:36;88710.13;;;-143.16;64.07
14885;BME280;7534;50.762;7.000;2023-03-04T03:58:03;88803.00;;;-143.16;64.17
14885;BME280;7534;50.762;7.000;2023-03-04T04:00:29;88770.72;;;-143.16;63.93
14885;BME280;7534;50.762;7.000;2023-03-04T04:02:57;88766.66;;;-143.16;63.50
14885;BME280;7534;50.762;7.000;2023-03-04T04:05:23;88762.63;;;-143.16;63.78
14885;BME280;7534;50.762;7.000;2023-03-04T04:07:48;88774.75;;;-143.16;64.00
14885;BME280;7534;50.762;7.000;2023-03-04T04:10:14;88742.44;;;-143.16;63.65
14885;BME280;7534;50.762;7.000;2023-03-04T04:12:40;88786.84;;;-143.16;63.38
14885;BME280;7534;50.762;7.000;2023-03-04T04:15:06;88744.47;;;-143.16;63.26
14885;BME280;7534;50.762;7.000;2023-03-04T04:17:32;88754.56;;;-143.16;63.01
14885;BME280;7534;50.762;7.000;2023-03-04T04:19:58;88782.81;;;-143.16;63.56
14885;BME280;7534;50.762;7.000;2023-03-04T04:22:24;88726.28;;;-143.16;63.45
14885;BME280;7534;50.762;7.000;2023-03-04T04:24:49;88689.94;;;-143.16;63.25
14885;BME280;7534;50.762;7.000;2023-03-04T04:27:15;88754.56;;;-143.16;63.15
14885;BME280;7534;50.762;7.000;2023-03-04T04:29:41;88782.81;;;-143.16;63.26
14885;BME280;7534;50.762;7.000;2023-03-04T04:32:07;88758.59;;;-143.16;62.98
14885;BME280;7534;50.762;7.000;2023-03-04T04:34:33;88794.94;;;-143.16;62.86
14885;BME280;7534;50.762;7.000;2023-03-04T04:36:59;88754.56;;;-143.16;62.95
14885;BME280;7534;50.762;7.000;2023-03-04T04:39:25;88764.66;;;-143.16;62.92
14885;BME280;7534;50.762;7.000;2023-03-04T04:41:50;88679.84;;;-143.16;63.01
14885;BME280;7534;50.762;7.000;2023-03-04T04:44:16;88714.19;;;-143.16;62.89
14885;BME280;7534;50.762;7.000;2023-03-04T04:46:42;88772.72;;;-143.16;62.65
14885;BME280;7534;50.762;7.000;2023-03-04T04:49:08;88774.75;;;-143.16;63.15
14885;BME280;7534;50.762;7.000;2023-03-04T04:51:36;88770.72;;;-143.16;63.36
14885;BME280;7534;50.762;7.000;2023-03-04T04:54:04;88815.13;;;-143.16;63.40
14885;BME280;7534;50.762;7.000;2023-03-04T04:56:30;88734.38;;;-143.16;63.21
14885;BME280;7534;50.762;7.000;2023-03-04T04:58:59;88742.44;;;-143.16;63.08
14885;BME280;7534;50.762;7.000;2023-03-04T05:01:26;88946.38;;;-143.16;62.93
14885;BME280;7534;50.762;7.000;2023-03-04T05:03:52;88770.72;;;-143.16;62.66
14885;BME280;7534;50.762;7.000;2023-03-04T05:06:20;88760.63;;;-143.16;62.16
14885;BME280;7534;50.762;7.000;2023-03-04T05:08:47;88629.38;;;-143.16;62.81
14885;BME280;7534;50.762;7.000;2023-03-04T05:11:13;88762.63;;;-143.16;62.61
14885;BME280;7534;50.762;7.000;2023-03-04T05:13:39;88687.94;;;-143.16;63.29
14885;BME280;7534;50.762;7.000;2023-03-04T05:16:06;88766.66;;;-143.16;63.25
14885;BME280;7534;50.762;7.000;2023-03-04T05:18:32;88776.75;;;-143.16;63.26
14885;BME280;7534;50.762;7.000;2023-03-04T05:21:01;88790.91;;;-143.16;63.38
14885;BME280;7534;50.762;7.000;2023-03-04T05:23:31;88754.56;;;-143.16;63.69
14885;BME280;7534;50.762;7.000;2023-03-04T05:25:59;88762.63;;;-143.16;63.54
14885;BME280;7534;50.762;7.000;2023-03-04T05:28:25;88726.28;;;-143.16;63.14
14885;BME280;7534;50.762;7.000;2023-03-04T05:30:50;88790.91;;;-143.16;63.32
14885;BME280;7534;50.762;7.000;2023-03-04T05:33:17;88738.41;;;-143.16;63.69
14885;BME280;7534;50.762;7.000;2023-03-04T05:35:44;88732.34;;;-143.16;63.88
14885;BME280;7534;50.762;7.000;2023-03-04T05:38:13;88754.56;;;-143.16;63.88
14885;BME280;7534;50.762;7.000;2023-03-04T05:40:40;88708.13;;;-143.16;63.45
14885;BME280;7534;50.762;7.000;2023-03-04T05:43:06;88798.97;;;-143.16;63.03
14885;BME280;7534;50.762;7.000;2023-03-04T05:45:32;88766.66;;;-143.16;63.25
14885;BME280;7534;50.762;7.000;2023-03-04T05:47:58;88770.72;;;-143.16;63.17
14885;BME280;7534;50.762;7.000;2023-03-04T05:50:25;88738.41;;;-143.16;63.01
14885;BME280;7534;50.762;7.000;2023-03-04T05:52:51;88774.75;;;-143.16;63.00
14885;BME280;7534;50.762;7.000;2023-03-04T05:55:17;88691.97;;;-143.16;63.05
14885;BME280;7534;50.762;7.000;2023-03-04T05:57:44;88764.66;;;-143.16;63.28
14885;BME280;7534;50.762;7.000;2023-03-04T06:00:12;88748.50;;;-143.16;62.90
14885;BME280;7534;50.762;7.000;2023-03-04T06:02:39;88744.47;;;-143.16;63.22
14885;BME280;7534;50.762;7.000;2023-03-04T06:05:06;88740.44;;;-143.16;63.71
14885;BME280;7534;50.762;7.000;2023-03-04T06:07:33;88681.88;;;-143.16;63.28
14885;BME280;7534;50.762;7.000;2023-03-04T06:09:58;88786.84;;;-143.16;63.31
14885;BME280;7534;50.762;7.000;2023-03-04T06:12:24;88698.03;;;-143.16;63.69
14885;BME280;7534;50.762;7.000;2023-03-04T06:14:50;88736.38;;;-143.16;63.66
14885;BME280;7534;50.762;7.000;2023-03-04T06:17:16;88732.34;;;-143.16;63.42
14885;BME280;7534;50.762;7.000;2023-03-04T06:19:42;88651.59;;;-143.16;63.31
14885;BME280;7534;50.762;7.000;2023-03-04T06:22:08;88677.84;;;-143.16;63.49
14885;BME280;7534;50.762;7.000;2023-03-04T06:24:34;88732.34;;;-143.16;63.12
14885;BME280;7534;50.762;7.000;2023-03-04T06:27:00;88740.44;;;-143.16;63.15
14885;BME280;7534;50.762;7.000;2023-03-04T06:29:26;88724.28;;;-143.16;62.83
14885;BME280;7534;50.762;7.000;2023-03-04T06:31:52;88738.41;;;-143.16;62.64
14885;BME280;7534;50.762;7.000;2023-03-04T06:34:18;88696.00;;;-143.16;62.21
14885;BME280;7534;50.762;7.000;2023-03-04T06:36:44;88661.69;;;-143.16;62.37
14885;BME280;7534;50.762;7.000;2023-03-04T06:39:10;88663.69;;;-143.16;62.49
14885;BME280;7534;50.762;7.000;2023-03-04T06:41:36;88754.56;;;-143.16;61.94
14885;BME280;7534;50.762;7.000;2023-03-04T06:44:03;88613.22;;;-143.16;62.17
14885;BME280;7534;50.762;7.000;2023-03-04T06:46:28;88708.13;;;-143.16;62.29
14885;BME280;7534;50.762;7.000;2023-03-04T06:48:55;88706.09;;;-143.16;62.10
14885;BME280;7534;50.762;7.000;2023-03-04T06:51:20;88696.00;;;-143.16;62.04
14885;BME280;7534;50.762;7.000;2023-03-04T06:53:46;88726.28;;;-143.16;62.41
14885;BME280;7534;50.762;7.000;2023-03-04T06:56:13;88726.28;;;-143.16;62.43
14885;BME280;7534;50.762;7.000;2023-03-04T06:58:43;88754.56;;;-143.16;62.47
14885;BME280;7534;50.762;7.000;2023-03-04T07:01:19;88716.19;;;-143.16;62.51
14885;BME280;7534;50.762;7.000;2023-03-04T07:03:47;88728.31;;;-143.16;62.32
14885;BME280;7534;50.762;7.000;2023-03-04T07:06:18;88748.50;;;-143.16;62.25
14885;BME280;7534;50.762;7.000;2023-03-04T07:08:45;88742.44;;;-143.16;62.77
14885;BME280;7534;50.762;7.000;2023-03-04T07:11:11;88748.50;;;-143.16;63.28
14885;BME280;7534;50.762;7.000;2023-03-04T07:13:37;89002.91;;;-143.16;62.99
14885;BME280;7534;50.762;7.000;2023-03-04T07:16:08;88754.56;;;-143.16;62.83
14885;BME280;7534;50.762;7.000;2023-03-04T07:18:37;88683.91;;;-143.16;62.83
14885;BME280;7534;50.762;7.000;2023-03-04T07:21:04;88734.38;;;-143.16;62.80
14885;BME280;7534;50.762;7.000;2023-03-04T07:23:30;88718.22;;;-143.16;62.49
14885;BME280;7534;50.762;7.000;2023-03-04T07:25:56;88653.59;;;-143.16;62.71
14885;BME280;7534;50.762;7.000;2023-03-04T07:28:22;88694.00;;;-143.16;62.93
14885;BME280;7534;50.762;7.000;2023-03-04T07:30:48;88675.81;;;-143.16;63.09
14885;BME280;7534;50.762;7.000;2023-03-04T07:33:14;88734.38;;;-143.16;62.79
14885;BME280;7534;50.762;7.000;2023-03-04T07:35:40;88683.91;;;-143.16;62.39
14885;BME280;7534;50.762;7.000;2023-03-04T07:38:06;88661.69;;;-143.16;62.25
14885;BME280;7534;50.762;7.000;2023-03-04T07:40:37;88714.19;;;-143.16;61.66
14885;BME280;7534;50.762;7.000;2023-03-04T07:43:03;88694.00;;;-143.16;61.62
14885;BME280;7534;50.762;7.000;2023-03-04T07:45:29;88698.03;;;-143.16;61.64
14885;BME280;7534;50.762;7.000;2023-03-04T07:47:56;88689.94;;;-143.16;61.52
14885;BME280;7534;50.762;7.000;2023-03-04T07:50:22;88685.91;;;-143.16;61.60
14885;BME280;7534;50.762;7.000;2023-03-04T07:52:48;88582.94;;;-143.16;61.03
14885;BME280;7534;50.762;7.000;2023-03-04T07:55:17;88659.66;;;-143.16;60.86
14885;BME280;7534;50.762;7.000;2023-03-04T07:57:46;88633.41;;;-143.16;60.80
14885;BME280;7534;50.762;7.000;2023-03-04T08:00:15;88669.75;;;-143.16;60.75
14885;BME280;7534;50.762;7.000;2023-03-04T08:02:41;88677.84;;;-143.16;60.42
14885;BME280;7534;50.762;7.000;2023-03-04T08:05:07;88665.72;;;-143.16;60.47
14885;BME280;7534;50.762;7.000;2023-03-04T08:07:33;88681.88;;;-143.16;60.20
14885;BME280;7534;50.762;7.000;2023-03-04T08:09:59;88685.91;;;-143.16;60.17
14885;BME280;7534;50.762;7.000;2023-03-04T08:12:25;88665.72;;;-143.16;60.11
14885;BME280;7534;50.762;7.000;2023-03-04T08:14:52;88633.41;;;-143.16;59.80
14885;BME280;7534;50.762;7.000;2023-03-04T08:17:19;88562.75;;;-143.16;59.48
14885;BME280;7534;50.762;7.000;2023-03-04T08:19:45;88655.63;;;-143.16;59.04
14885;BME280;7534;50.762;7.000;2023-03-04T08:22:12;88589.00;;;-143.16;59.22
14885;BME280;7534;50.762;7.000;2023-03-04T08:24:38;88589.00;;;-143.16;59.29
14885;BME280;7534;50.762;7.000;2023-03-04T08:27:04;88633.41;;;-143.16;58.79
14885;BME280;7534;50.762;7.000;2023-03-04T08:29:30;88554.69;;;-143.16;58.89
14885;BME280;7534;50.762;7.000;2023-03-04T08:31:56;88627.38;;;-143.16;58.83
14885;BME280;7534;50.762;7.000;2023-03-04T08:34:27;88423.47;;;-143.16;58.41
14885;BME280;7534;50.762;7.000;2023-03-04T08:36:54;88655.63;;;-143.16;58.90
14885;BME280;7534;50.762;7.000;2023-03-04T08:39:20;88558.72;;;-143.16;59.01
14885;BME280;7534;50.762;7.000;2023-03-04T08:41:47;88621.31;;;-143.16;58.89
14885;BME280;7534;50.762;7.000;2023-03-04T08:44:14;88548.63;;;-143.16;58.42
14885;BME280;7534;50.762;7.000;2023-03-04T08:46:41;88578.91;;;-143.16;58.32
14885;BME280;7534;50.762;7.000;2023-03-04T08:49:10;88568.81;;;-143.16;58.18
14885;BME280;7534;50.762;7.000;2023-03-04T08:51:36;88512.28;;;-143.16;57.86
14885;BME280;7534;50.762;7.000;2023-03-04T08:54:03;88528.44;;;-143.16;58.05
14885;BME280;7534;50.762;7.000;2023-03-04T08:56:28;88510.28;;;-143.16;57.61
14885;BME280;7534;50.762;7.000;2023-03-04T08:58:54;88488.06;;;-143.16;57.46
14885;BME280;7534;50.762;7.000;2023-03-04T09:01:20;88504.22;;;-143.16;57.83
14885;BME280;7534;50.762;7.000;2023-03-04T09:03:45;88540.53;;;-143.16;57.62
14885;BME280;7534;50.762;7.000;2023-03-04T09:06:15;88572.84;;;-143.16;58.03
14885;BME280;7534;50.762;7.000;2023-03-04T09:08:43;88609.19;;;-143.16;58.07
14885;BME280;7534;50.762;7.000;2023-03-04T09:11:09;88619.28;;;-143.16;57.76
14885;BME280;7534;50.762;7.000;2023-03-04T09:13:35;88629.38;;;-143.16;57.73
14885;BME280;7534;50.762;7.000;2023-03-04T09:16:02;88558.72;;;-143.16;57.54
14885;BME280;7534;50.762;7.000;2023-03-04T09:18:33;88584.97;;;-143.16;57.19
14885;BME280;7534;50.762;7.000;2023-03-04T09:20:59;88508.25;;;-143.16;57.09
14885;BME280;7534;50.762;7.000;2023-03-04T09:23:25;88568.81;;;-143.16;56.67
14885;BME280;7534;50.762;7.000;2023-03-04T09:25:51;88548.63;;;-143.16;56.98
14885;BME280;7534;50.762;7.000;2023-03-04T09:28:18;88605.16;;;-143.16;56.89
14885;BME280;7534;50.762;7.000;2023-03-04T09:30:49;88479.97;;;-143.16;57.02
14885;BME280;7534;50.762;7.000;2023-03-04T09:33:15;88605.16;;;-143.16;56.77
14885;BME280;7534;50.762;7.000;2023-03-04T09:35:41;88546.59;;;-143.16;56.91
14885;BME280;7534;50.762;7.000;2023-03-04T09:38:07;88437.59;;;-143.16;56.42
14885;BME280;7534;50.762;7.000;2023-03-04T09:40:45;88496.13;;;-143.16;55.74
14885;BME280;7534;50.762;7.000;2023-03-04T09:43:21;88544.59;;;-143.16;55.58
14885;BME280;7534;50.762;7.000;2023-03-04T09:45:56;88459.78;;;-143.16;55.16
14885;BME280;7534;50.762;7.000;2023-03-04T09:48:28;88663.69;;;-143.16;54.30
14885;BME280;7534;50.762;7.000;2023-03-04T09:51:20;88455.75;;;-143.16;53.55
14885;BME280;7534;50.762;7.000;2023-03-04T09:54:10;88425.47;;;-143.16;53.83
14885;BME280;7534;50.762;7.000;2023-03-04T09:56:40;88395.19;;;-143.16;53.34
14885;BME280;7534;50.762;7.000;2023-03-04T09:59:23;88403.28;;;-143.16;53.02
14885;BME280;7534;50.762;7.000;2023-03-04T10:01:58;88409.31;;;-143.16;53.01
14885;BME280;7534;50.762;7.000;2023-03-04T10:04:29;88403.28;;;-143.16;52.22
14885;BME280;7534;50.762;7.000;2023-03-04T10:06:56;88387.13;;;-143.16;51.87
14885;BME280;7534;50.762;7.000;2023-03-04T10:09:29;88292.22;;;-143.16;51.67
14885;BME280;7534;50.762;7.000;2023-03-04T10:12:06;88308.38;;;-143.16;50.38
14885;BME280;7534;50.762;7.000;2023-03-04T10:14:47;88286.19;;;-143.16;48.93
14885;BME280;7534;50.762;7.000;2023-03-04T10:17:34;88152.94;;;-143.16;47.82
14885;BME280;7534;50.762;7.000;2023-03-04T10:20:15;88134.78;;;-143.16;45.83
14885;BME280;7534;50.762;7.000;2023-03-04T10:22:52;88187.25;;;-143.16;45.82
14885;BME280;7534;50.762;7.000;2023-03-04T10:25:28;88213.50;;;-143.16;46.26
14885;BME280;7534;50.762;7.000;2023-03-04T10:28:13;88237.72;;;-143.16;46.09
14885;BME280;7534;50.762;7.000;2023-03-04T10:31:01;88185.25;;;-143.16;46.21
14885;BME280;7534;50.762;7.000;2023-03-04T10:33:36;88257.91;;;-143.16;47.46
14885;BME280;7534;50.762;7.000;2023-03-04T10:36:32;88201.41;;;-143.16;47.84
14885;BME280;7534;50.762;7.000;2023-03-04T10:39:18;88229.66;;;-143.16;48.61
14885;BME280;7534;50.762;7.000;2023-03-04T10:41:53;88318.47;;;-143.16;49.22
14885;BME280;7534;50.762;7.000;2023-03-04T10:44:19;88320.50;;;-143.16;49.67
14885;BME280;7534;50.762;7.000;2023-03-04T10:46:48;88338.66;;;-143.16;49.78
14885;BME280;7534;50.762;7.000;2023-03-04T10:49:19;88368.94;;;-143.16;50.05
14885;BME280;7534;50.762;7.000;2023-03-04T10:52:53;88292.22;;;-143.16;50.39
14885;BME280;7534;50.762;7.000;2023-03-04T10:54:53;88379.03;;;-143.16;50.98
14885;BME280;7534;50.762;7.000;2023-03-04T10:57:31;88379.03;;;-143.16;51.97
14885;BME280;7534;50.762;7.000;2023-03-04T11:00:18;88379.03;;;-143.16;52.11
14885;BME280;7534;50.762;7.000;2023-03-04T11:02:47;88352.81;;;-143.16;52.07
14885;BME280;7534;50.762;7.000;2023-03-04T11:05:24;88364.91;;;-143.16;51.42
14885;BME280;7534;50.762;7.000;2023-03-04T11:07:58;88379.03;;;-143.16;51.44
14885;BME280;7534;50.762;7.000;2023-03-04T11:10:42;88589.00;;;-143.16;51.33
14885;BME280;7534;50.762;7.000;2023-03-04T11:16:02;88310.41;;;-143.16;51.30
14885;BME280;7534;50.762;7.000;2023-03-04T11:18:43;88306.38;;;-143.16;51.25
14885;BME280;7534;50.762;7.000;2023-03-04T11:21:18;88316.47;;;-143.16;50.80
14885;BME280;7534;50.762;7.000;2023-03-04T11:26:23;88322.53;;;-143.16;49.69
14885;BME280;7534;50.762;7.000;2023-03-04T11:29:00;88223.59;;;-143.16;49.71
14885;BME280;7534;50.762;7.000;2023-03-04T11:32:10;88348.75;;;-143.16;50.31
14885;BME280;7534;50.762;7.000;2023-03-04T11:34:46;88286.19;;;-143.16;50.45
14885;BME280;7534;50.762;7.000;2023-03-04T11:37:29;88292.22;;;-143.16;50.10
14885;BME280;7534;50.762;7.000;2023-03-04T11:40:03;88223.59;;;-143.16;49.94
14885;BME280;7534;50.762;7.000;2023-03-04T11:49:10;88318.47;;;-143.16;51.43
14885;BME280;7534;50.762;7.000;2023-03-04T11:52:05;88346.75;;;-143.16;52.13
14885;BME280;7534;50.762;7.000;2023-03-04T11:57:46;88459.78;;;-143.16;50.50
14885;BME280;7534;50.762;7.000;2023-03-04T12:00:51;88239.75;;;-143.16;49.13
14885;BME280;7534;50.762;7.000;2023-03-04T12:03:50;88249.84;;;-143.16;48.77
14885;BME280;7534;50.762;7.000;2023-03-04T12:28:23;88413.38;;;-143.16;50.04
14885;BME280;7534;50.762;7.000;2023-03-04T12:31:13;88290.22;;;-143.16;50.48
14885;BME280;7534;50.762;7.000;2023-03-04T12:43:13;88362.91;;;-143.16;51.48
14885;BME280;7534;50.762;7.000;2023-03-04T12:46:03;88336.66;;;-143.16;51.16
14885;BME280;7534;50.762;7.000;2023-03-04T12:48:40;88320.50;;;-143.16;51.00
14885;BME280;7534;50.762;7.000;2023-03-04T12:51:24;88290.22;;;-143.16;51.05
14885;BME280;7534;50.762;7.000;2023-03-04T12:54:39;88383.09;;;-143.16;50.71
14885;BME280;7534;50.762;7.000;2023-03-04T12:57:25;88314.44;;;-143.16;50.17
14885;BME280;7534;50.762;7.000;2023-03-04T13:00:38;88266.00;;;-143.16;50.47
14885;BME280;7534;50.762;7.000;2023-03-04T13:03:22;88259.94;;;-143.16;49.88
14885;BME280;7534;50.762;7.000;2023-03-04T13:08:52;88282.16;;;-143.16;49.83
14885;BME280;7534;50.762;7.000;2023-03-04T13:14:07;88253.88;;;-143.16;49.88
14885;BME280;7534;50.762;7.000;2023-03-04T13:17:00;88290.22;;;-143.16;49.94
14885;BME280;7534;50.762;7.000;2023-03-04T13:19:50;88399.22;;;-143.16;49.53
14885;BME280;7534;50.762;7.000;2023-03-04T13:28:30;88288.19;;;-143.16;50.07
14885;BME280;7534;50.762;7.000;2023-03-04T13:36:01;88257.91;;;-143.16;49.50
14885;BME280;7534;50.762;7.000;2023-03-04T13:41:22;88310.41;;;-143.16;49.71
14885;BME280;7534;50.762;7.000;2023-03-04T13:43:59;88261.97;;;-143.16;49.86
14885;BME280;7534;50.762;7.000;2023-03-04T13:51:33;88322.53;;;-143.16;50.92
14885;BME280;7534;50.762;7.000;2023-03-04T13:54:22;88370.97;;;-143.16;51.48
14885;BME280;7534;50.762;7.000;2023-03-04T13:57:16;88354.81;;;-143.16;52.26
14885;BME280;7534;50.762;7.000;2023-03-04T13:59:56;88360.88;;;-143.16;52.37
14885;BME280;7534;50.762;7.000;2023-03-04T14:02:32;88379.03;;;-143.16;52.72
14885;BME280;7534;50.762;7.000;2023-03-04T14:05:00;88278.09;;;-143.16;52.61
14885;BME280;7534;50.762;7.000;2023-03-04T14:07:33;88278.09;;;-143.16;52.12
14885;BME280;7534;50.762;7.000;2023-03-04T14:12:46;88498.16;;;-143.16;52.73
14885;BME280;7534;50.762;7.000;2023-03-04T14:17:48;88379.03;;;-143.16;53.74
14885;BME280;7534;50.762;7.000;2023-03-04T14:20:29;88397.22;;;-143.16;53.58
14885;BME280;7534;50.762;7.000;2023-03-04T14:22:59;88431.53;;;-143.16;54.29
14885;BME280;7534;50.762;7.000;2023-03-04T14:25:36;88437.59;;;-143.16;54.32